»·PEaware :: UAL2994 KSAN-KSNA

UAL2994 :: KSAN-KSNA

FLIGHT INFORMATION

Flight Status: Arrived
Operator:
United Airlines
More flights by this operator :: More flights under this callsign
Pilot: Julien G. (19066)
Aircraft: BOEING 737-900
(B739)
More flights by this aircraft type
Origin: KSAN San Diego Intl-Lindbergh
United States
Destination: KSNA John Wayne-Orange Co
United States
More flights between these airports :: More routes between these airports
Route: +PEBLE6 SLI
File this flight plan on PilotEdge
Remarks: RMK / POWERED BY SIMBRIEF
Altitude:
(Current/Filed)
3,000ft
Speed:
(Current/Filed)
263kts
Departed: 29-Apr-18 02:33 PM
Arrived: 29-Apr-18 02:58 PM
Distance/Time
Traveled:
66nm/0:24
Distance/Time
To Go:
Arrived

Flight Plot

Page will automatically refresh every two minutes.


Map Options




Map Legend


Flown Route
Filed Route
Departure Airport
Arrival Airport
Navaid (VOR, NDB)
Fix

Horizontal Profiles

Position Reports

Time Latitude Longitude Heading Altitude Ground
Speed
29-Apr-18 14:02 32.733812 -117.204603 94 17ft 0kts
29-Apr-18 14:03 32.733812 -117.204603 94 17ft 0kts
29-Apr-18 14:04 32.733812 -117.204603 94 17ft 0kts
29-Apr-18 14:05 32.733812 -117.204603 94 17ft 0kts
29-Apr-18 14:06 32.733812 -117.204603 94 17ft 0kts
29-Apr-18 14:07 32.733812 -117.204603 94 17ft 0kts
29-Apr-18 14:08 32.733812 -117.204603 94 17ft 0kts
29-Apr-18 14:09 32.733812 -117.204603 94 18ft 0kts
29-Apr-18 14:10 32.733812 -117.204603 94 18ft 0kts
29-Apr-18 14:11 32.733812 -117.204603 94 18ft 0kts
29-Apr-18 14:12 32.733812 -117.204603 94 18ft 0kts
29-Apr-18 14:13 32.733812 -117.204603 94 18ft 0kts
29-Apr-18 14:14 32.733812 -117.204603 94 18ft 0kts
29-Apr-18 14:15 32.733812 -117.204603 94 18ft 0kts
29-Apr-18 14:16 32.733812 -117.204603 94 18ft 0kts
29-Apr-18 14:17 32.733812 -117.204603 94 18ft 0kts
29-Apr-18 14:18 32.733812 -117.204603 94 18ft 0kts
29-Apr-18 14:19 32.733837 -117.204963 92 18ft 2kts
29-Apr-18 14:20 32.733579 -117.205579 36 18ft 2kts
29-Apr-18 14:21 32.733486 -117.205649 30 18ft 0kts
29-Apr-18 14:22 32.733487 -117.205648 30 18ft 0kts
29-Apr-18 14:23 32.735087 -117.205090 46 18ft 5kts
29-Apr-18 14:24 32.735353 -117.201352 107 17ft 22kts
29-Apr-18 14:25 32.733499 -117.193651 105 21ft 27kts
29-Apr-18 14:26 32.731227 -117.184349 103 17ft 31kts
29-Apr-18 14:27 32.729480 -117.177015 92 22ft 16kts
29-Apr-18 14:28 32.729499 -117.176763 77 23ft 0kts
29-Apr-18 14:29 32.729499 -117.176763 77 23ft 0kts
29-Apr-18 14:30 32.729499 -117.176763 77 23ft 0kts
29-Apr-18 14:31 32.730637 -117.177598 285 24ft 31kts
29-Apr-18 14:32 32.742237 -117.222774 293 2098ft 208kts
29-Apr-18 14:33 32.782511 -117.288695 301 6715ft 266kts
29-Apr-18 14:34 32.824240 -117.361561 301 9980ft 270kts
29-Apr-18 14:35 32.867989 -117.432910 319 9980ft 271kts
29-Apr-18 14:36 32.933022 -117.479701 325 9980ft 273kts
29-Apr-18 14:37 32.996134 -117.528483 306 9980ft 267kts
29-Apr-18 14:38 33.038148 -117.601278 302 9986ft 268kts
29-Apr-18 14:39 33.079948 -117.674834 302 9991ft 268kts
29-Apr-18 14:40 33.121840 -117.742345 305 9992ft 270kts
29-Apr-18 14:41 33.167735 -117.813149 305 9992ft 270kts
29-Apr-18 14:42 33.232862 -117.856731 335 10026ft 278kts
29-Apr-18 14:43 33.310798 -117.848843 11 9193ft 291kts
29-Apr-18 14:44 33.384615 -117.824013 11 8162ft 292kts
29-Apr-18 14:45 33.462185 -117.798532 11 6692ft 295kts
29-Apr-18 14:46 33.540216 -117.773759 11 6020ft 285kts
29-Apr-18 14:47 33.616423 -117.749577 11 6019ft 286kts
29-Apr-18 14:49 33.689051 -117.726233 11 5291ft 272kts
29-Apr-18 14:50 33.756057 -117.704467 11 4016ft 232kts
29-Apr-18 14:51 33.818071 -117.703574 333 4015ft 228kts
29-Apr-18 14:52 33.861650 -117.744777 270 4024ft 224kts
29-Apr-18 14:52 33.829745 -117.788962 202 3842ft 223kts
29-Apr-18 14:53 33.775502 -117.807231 203 2552ft 160kts
29-Apr-18 14:54 33.739840 -117.828800 209 1765ft 145kts
29-Apr-18 14:55 33.705091 -117.850402 207 702ft 133kts
29-Apr-18 14:56 33.674358 -117.869706 205 54ft 106kts
29-Apr-18 14:57 33.668762 -117.871285 40 57ft 20kts
29-Apr-18 14:58 33.673461 -117.866906 33 51ft 22kts
29-Apr-18 15:00 33.678478 -117.863595 85 44ft 1kts
29-Apr-18 15:00 33.678327 -117.863049 117 44ft 0kts
29-Apr-18 15:08 33.678327 -117.863049 117 44ft 0kts

Navigation Log

Ident Type
1. KSAN Airport
2. MELDY Fix
3. PEBLE Fix
4. SLI Navaid
5. KSNA Airport